createdAt,value
2023-10-09T00:00:54.655Z,11.40
2023-10-09T00:01:54.640Z,7.40
2023-10-09T00:02:54.640Z,7.50
2023-10-09T00:03:54.799Z,5.20
2023-10-09T00:04:54.630Z,9.00
2023-10-09T00:05:54.766Z,6.90
2023-10-09T00:06:54.646Z,8.50
2023-10-09T00:07:54.571Z,7.00
2023-10-09T00:08:54.593Z,8.70
2023-10-09T00:09:54.552Z,7.50
2023-10-09T00:10:55.036Z,9.30
2023-10-09T00:11:54.529Z,8.40
2023-10-09T00:12:54.533Z,8.80
2023-10-09T00:13:54.509Z,8.90
2023-10-09T00:14:54.549Z,8.60
2023-10-09T00:15:54.494Z,7.60
2023-10-09T00:16:54.497Z,9.70
2023-10-09T00:17:54.562Z,7.10
2023-10-09T00:18:54.624Z,6.60
2023-10-09T00:19:54.450Z,6.90
2023-10-09T00:20:54.478Z,12.20
2023-10-09T00:21:54.411Z,11.30
2023-10-09T00:22:54.423Z,13.00
2023-10-09T00:23:54.451Z,10.50
2023-10-09T00:24:54.382Z,9.40
2023-10-09T00:25:54.385Z,8.30
2023-10-09T00:26:54.404Z,7.80
2023-10-09T00:27:54.370Z,8.20
2023-10-09T00:28:54.346Z,8.20
2023-10-09T00:29:54.351Z,7.20
2023-10-09T00:30:54.339Z,7.70
2023-10-09T00:31:54.327Z,7.20
2023-10-09T00:32:54.616Z,8.90
2023-10-09T00:33:54.335Z,9.60
2023-10-09T00:34:54.301Z,7.80
2023-10-09T00:35:54.296Z,10.60
2023-10-09T00:36:54.281Z,9.90
2023-10-09T00:37:54.251Z,9.20
2023-10-09T00:38:54.269Z,9.20
2023-10-09T00:39:54.250Z,8.70
2023-10-09T00:40:54.257Z,11.10
2023-10-09T00:41:54.253Z,8.60
2023-10-09T00:42:54.207Z,11.20
2023-10-09T00:43:54.430Z,8.60
2023-10-09T00:44:54.226Z,11.60
2023-10-09T00:45:54.246Z,8.40
2023-10-09T00:46:54.166Z,8.30
2023-10-09T00:47:54.244Z,10.20
2023-10-09T00:48:54.192Z,7.70
2023-10-09T00:49:54.139Z,9.70
2023-10-09T00:50:54.308Z,9.10
2023-10-09T00:51:54.123Z,8.20
2023-10-09T00:52:54.111Z,7.50
2023-10-09T00:53:54.134Z,8.30
2023-10-09T00:54:54.095Z,9.30
2023-10-09T00:55:55.088Z,7.10
2023-10-09T00:56:54.095Z,12.30
2023-10-09T00:57:54.054Z,9.70
2023-10-09T00:58:54.051Z,11.70
2023-10-09T00:59:54.098Z,10.20
2023-10-09T01:00:54.029Z,8.60
2023-10-09T01:01:54.023Z,8.20
2023-10-09T01:02:54.076Z,10.20
2023-10-09T01:03:54.083Z,11.40
2023-10-09T01:04:54.003Z,8.60
2023-10-09T01:05:54.020Z,11.60
2023-10-09T01:06:53.962Z,12.10
2023-10-09T01:07:53.962Z,9.30
2023-10-09T01:08:54.027Z,12.00
2023-10-09T01:09:53.952Z,9.30
2023-10-09T01:10:53.940Z,11.70
2023-10-09T01:11:54.022Z,9.70
2023-10-09T01:12:53.925Z,11.40
2023-10-09T01:13:54.487Z,12.70
2023-10-09T01:14:54.148Z,14.70
2023-10-09T01:15:53.891Z,14.00
2023-10-09T01:16:53.872Z,13.20
2023-10-09T01:17:53.938Z,14.20
2023-10-09T01:18:53.866Z,13.70
2023-10-09T01:19:53.832Z,14.20
2023-10-09T01:20:53.870Z,11.40
2023-10-09T01:21:53.839Z,12.70
2023-10-09T01:22:53.824Z,16.00
2023-10-09T01:23:53.888Z,11.00
2023-10-09T01:24:53.783Z,13.10
2023-10-09T01:25:53.804Z,11.30
2023-10-09T01:26:53.775Z,16.80
2023-10-09T01:27:53.769Z,14.30
2023-10-09T01:28:53.747Z,12.00
2023-10-09T01:29:53.752Z,17.00
2023-10-09T01:30:53.733Z,16.70
2023-10-09T01:31:53.722Z,15.80
2023-10-09T01:32:53.809Z,13.50
2023-10-09T01:33:53.744Z,14.60
2023-10-09T01:34:53.696Z,13.30
2023-10-09T01:35:53.706Z,15.40
2023-10-09T01:36:53.690Z,15.90
2023-10-09T01:37:54.673Z,13.60
2023-10-09T01:38:53.688Z,15.40
2023-10-09T01:39:53.664Z,17.90
2023-10-09T01:40:53.627Z,18.90
2023-10-09T01:41:53.643Z,15.30
2023-10-09T01:42:53.631Z,14.40
2023-10-09T01:43:53.598Z,14.90
2023-10-09T01:44:53.597Z,12.80
2023-10-09T01:45:53.617Z,13.50
2023-10-09T01:46:53.614Z,15.50
2023-10-09T01:47:53.685Z,15.20
2023-10-09T01:48:53.566Z,11.50
2023-10-09T01:49:53.553Z,13.00
2023-10-09T01:50:53.565Z,15.10
2023-10-09T01:51:53.564Z,18.40
2023-10-09T01:52:53.529Z,12.40
2023-10-09T01:53:53.522Z,18.60
2023-10-09T01:54:53.508Z,14.70
2023-10-09T01:55:53.537Z,14.00
2023-10-09T01:56:53.577Z,17.50
2023-10-09T01:57:53.454Z,14.50
2023-10-09T01:58:53.452Z,17.10
2023-10-09T01:59:53.499Z,15.80
2023-10-09T02:00:53.484Z,16.50
2023-10-09T02:01:53.410Z,20.60
2023-10-09T02:02:53.563Z,16.10
2023-10-09T02:03:53.543Z,17.10
2023-10-09T02:04:53.441Z,20.70
2023-10-09T02:05:53.420Z,21.10
2023-10-09T02:06:53.411Z,19.30
2023-10-09T02:07:53.576Z,17.40
2023-10-09T02:08:53.345Z,18.50
2023-10-09T02:09:53.380Z,20.60
2023-10-09T02:10:53.333Z,18.70
2023-10-09T02:11:53.319Z,18.00
2023-10-09T02:12:53.308Z,21.90
2023-10-09T02:13:53.301Z,20.30
2023-10-09T02:14:53.321Z,27.40
2023-10-09T02:15:53.393Z,22.90
2023-10-09T02:16:53.296Z,24.80
2023-10-09T02:17:53.349Z,26.20
2023-10-09T02:18:53.344Z,24.40
2023-10-09T02:19:53.291Z,23.10
2023-10-09T02:20:53.252Z,22.60
2023-10-09T02:21:53.217Z,24.20
2023-10-09T02:22:53.205Z,25.30
2023-10-09T02:23:53.250Z,25.50
2023-10-09T02:24:53.185Z,28.00
2023-10-09T02:25:53.179Z,26.30
2023-10-09T02:26:53.170Z,24.10
2023-10-09T02:27:53.162Z,27.30
2023-10-09T02:28:53.187Z,22.80
2023-10-09T02:29:53.145Z,25.60
2023-10-09T02:30:53.151Z,23.50
2023-10-09T02:31:53.230Z,23.00
2023-10-09T02:32:53.167Z,25.10
2023-10-09T02:33:53.118Z,21.00
2023-10-09T02:34:53.095Z,23.50
2023-10-09T02:35:53.073Z,22.60
2023-10-09T02:36:53.076Z,28.80
2023-10-09T02:37:53.090Z,24.30
2023-10-09T02:38:53.071Z,24.00
2023-10-09T02:39:53.048Z,24.90
2023-10-09T02:40:53.038Z,28.00
2023-10-09T02:41:53.015Z,23.40
2023-10-09T02:42:53.045Z,26.10
2023-10-09T02:43:53.001Z,27.50
2023-10-09T02:44:53.044Z,27.70
2023-10-09T02:45:52.979Z,22.30
2023-10-09T02:46:53.018Z,28.90
2023-10-09T02:47:53.007Z,25.60
2023-10-09T02:48:52.961Z,24.80
2023-10-09T02:49:52.948Z,23.10
2023-10-09T02:50:52.940Z,27.40
2023-10-09T02:51:52.967Z,24.30
2023-10-09T02:52:52.923Z,22.30
2023-10-09T02:53:52.925Z,25.00
2023-10-09T02:54:52.981Z,23.80
2023-10-09T02:55:52.890Z,23.80
2023-10-09T02:56:52.932Z,25.40
2023-10-09T02:57:52.885Z,23.20
2023-10-09T02:58:52.875Z,28.90
2023-10-09T02:59:52.972Z,26.60
2023-10-09T03:00:52.965Z,25.10
2023-10-09T03:01:52.847Z,27.70
2023-10-09T03:02:52.850Z,27.20
2023-10-09T03:03:52.872Z,27.00
2023-10-09T03:04:52.793Z,25.30
2023-10-09T03:05:52.811Z,25.50
2023-10-09T03:06:52.799Z,23.50
2023-10-09T03:07:52.762Z,26.70
2023-10-09T03:08:52.749Z,24.00
2023-10-09T03:09:52.744Z,26.00
2023-10-09T03:10:52.783Z,24.30
2023-10-09T03:11:52.717Z,22.80
2023-10-09T03:12:52.718Z,27.40
2023-10-09T03:13:52.705Z,25.50
2023-10-09T03:14:52.709Z,23.50
2023-10-09T03:15:53.695Z,26.10
2023-10-09T03:16:52.668Z,29.80
2023-10-09T03:17:52.693Z,25.30
2023-10-09T03:18:52.654Z,27.50
2023-10-09T03:19:52.661Z,25.10
2023-10-09T03:20:52.631Z,28.90
2023-10-09T03:21:52.629Z,23.50
2023-10-09T03:22:52.629Z,21.20
2023-10-09T03:23:52.625Z,22.50
2023-10-09T03:24:52.606Z,22.60
2023-10-09T03:25:52.870Z,24.20
2023-10-09T03:26:52.677Z,28.00
2023-10-09T03:27:52.571Z,24.50
2023-10-09T03:28:52.596Z,25.90
2023-10-09T03:29:52.562Z,25.00
2023-10-09T03:30:52.559Z,22.60
2023-10-09T03:31:52.524Z,25.80
2023-10-09T03:32:52.647Z,25.90
2023-10-09T03:33:52.550Z,27.50
2023-10-09T03:34:52.515Z,24.70
2023-10-09T03:35:52.479Z,28.10
2023-10-09T03:36:52.496Z,28.00
2023-10-09T03:37:52.461Z,25.00
2023-10-09T03:38:52.467Z,28.30
2023-10-09T03:39:52.447Z,32.00
2023-10-09T03:40:52.456Z,26.10
2023-10-09T03:41:52.425Z,20.60
2023-10-09T03:42:52.440Z,26.30
2023-10-09T03:43:52.440Z,30.60
2023-10-09T03:44:52.404Z,24.40
2023-10-09T03:45:52.412Z,26.90
2023-10-09T03:46:52.428Z,24.70
2023-10-09T03:47:52.432Z,26.70
2023-10-09T03:48:52.369Z,21.70
2023-10-09T03:49:52.351Z,29.00
2023-10-09T03:50:52.369Z,23.20
2023-10-09T03:51:53.424Z,27.60
2023-10-09T03:52:54.646Z,24.10
2023-10-09T03:53:53.337Z,23.00
2023-10-09T03:54:52.327Z,29.20
2023-10-09T03:55:52.306Z,24.80
2023-10-09T03:56:52.320Z,24.40
2023-10-09T03:57:52.298Z,23.40
2023-10-09T03:58:52.260Z,27.90
2023-10-09T03:59:52.249Z,22.30
2023-10-09T04:00:52.318Z,24.50
2023-10-09T04:01:52.321Z,22.10
2023-10-09T04:02:52.377Z,24.90
2023-10-09T04:03:52.287Z,23.00
2023-10-09T04:04:52.445Z,28.20
2023-10-09T04:05:52.176Z,28.50
2023-10-09T04:06:52.200Z,25.80
2023-10-09T04:07:52.165Z,26.60
2023-10-09T04:08:52.151Z,22.60
2023-10-09T04:09:52.148Z,23.40
2023-10-09T04:10:53.019Z,28.50
2023-10-09T04:11:52.139Z,25.60
2023-10-09T04:12:52.112Z,25.50
2023-10-09T04:13:52.101Z,25.70
2023-10-09T04:14:52.102Z,25.10
2023-10-09T04:15:52.125Z,27.20
2023-10-09T04:16:52.083Z,25.60
2023-10-09T04:17:52.088Z,24.70
2023-10-09T04:18:52.134Z,30.40
2023-10-09T04:19:52.040Z,24.20
2023-10-09T04:20:52.045Z,26.70
2023-10-09T04:21:52.030Z,27.40
2023-10-09T04:22:52.280Z,29.50
2023-10-09T04:23:52.000Z,29.50
2023-10-09T04:24:52.021Z,27.20
2023-10-09T04:25:52.008Z,29.40
2023-10-09T04:26:51.963Z,27.90
2023-10-09T04:27:51.964Z,25.70
2023-10-09T04:28:51.950Z,24.40
2023-10-09T04:29:51.952Z,28.20
2023-10-09T04:30:52.098Z,33.00
2023-10-09T04:31:51.936Z,29.60
2023-10-09T04:32:51.957Z,28.90
2023-10-09T04:33:51.902Z,29.90
2023-10-09T04:34:51.910Z,31.20
2023-10-09T04:35:51.881Z,29.30
2023-10-09T04:36:51.874Z,28.60
2023-10-09T04:37:51.859Z,31.60
2023-10-09T04:38:51.886Z,27.90
2023-10-09T04:39:51.885Z,24.40
2023-10-09T04:40:51.830Z,29.50
2023-10-09T04:41:51.816Z,28.10
2023-10-09T04:42:51.821Z,27.90
2023-10-09T04:43:51.805Z,28.10
2023-10-09T04:44:51.788Z,30.00
2023-10-09T04:45:51.779Z,24.70
2023-10-09T04:46:51.761Z,27.40
2023-10-09T04:47:51.802Z,32.10
2023-10-09T04:48:51.771Z,27.60
2023-10-09T04:49:51.738Z,29.00
2023-10-09T04:50:51.722Z,29.00
2023-10-09T04:51:51.704Z,29.80
2023-10-09T04:52:51.745Z,30.10
2023-10-09T04:53:51.707Z,27.20
2023-10-09T04:54:51.679Z,29.70
2023-10-09T04:55:51.683Z,30.00
2023-10-09T04:56:51.659Z,32.50
2023-10-09T04:57:51.683Z,30.10
2023-10-09T04:58:51.647Z,28.60
2023-10-09T04:59:51.657Z,31.00
2023-10-09T05:00:51.632Z,30.30
2023-10-09T05:01:51.648Z,32.40
2023-10-09T05:02:51.647Z,32.40
2023-10-09T05:03:51.665Z,31.10
2023-10-09T05:04:51.607Z,25.80
2023-10-09T05:05:51.582Z,29.70
2023-10-09T05:06:51.586Z,30.70
2023-10-09T05:07:51.574Z,29.00
2023-10-09T05:08:51.566Z,28.20
2023-10-09T05:09:51.533Z,30.30
2023-10-09T05:10:51.525Z,32.00
2023-10-09T05:11:51.558Z,33.60
2023-10-09T05:12:51.609Z,28.10
2023-10-09T05:13:51.525Z,30.20
2023-10-09T05:14:51.513Z,32.40
2023-10-09T05:15:51.531Z,25.80
2023-10-09T05:16:51.526Z,31.00
2023-10-09T05:17:51.510Z,27.70
2023-10-09T05:18:51.447Z,30.30
2023-10-09T05:19:51.436Z,31.20
2023-10-09T05:20:51.453Z,31.60
2023-10-09T05:21:51.436Z,31.10
2023-10-09T05:22:51.405Z,27.00
2023-10-09T05:23:51.404Z,30.20
2023-10-09T05:24:51.377Z,34.20
2023-10-09T05:25:51.397Z,26.60
2023-10-09T05:26:51.355Z,28.00
2023-10-09T05:27:51.385Z,30.00
2023-10-09T05:28:51.344Z,30.60
2023-10-09T05:29:51.346Z,27.50
2023-10-09T05:30:51.353Z,29.60
2023-10-09T05:31:51.400Z,25.30
2023-10-09T05:32:51.318Z,29.60
2023-10-09T05:33:53.252Z,30.10
2023-10-09T05:34:51.336Z,26.60
2023-10-09T05:35:51.304Z,30.90
2023-10-09T05:36:51.284Z,28.20
2023-10-09T05:37:51.267Z,28.40
2023-10-09T05:38:51.254Z,25.90
2023-10-09T05:39:51.275Z,26.30
2023-10-09T05:40:51.238Z,26.00
2023-10-09T05:41:51.220Z,27.80
2023-10-09T05:42:51.231Z,29.90
2023-10-09T05:43:51.201Z,25.30
2023-10-09T05:44:51.208Z,25.20
2023-10-09T05:45:51.331Z,27.90
2023-10-09T05:46:51.180Z,28.70
2023-10-09T05:47:51.210Z,31.10
2023-10-09T05:48:51.228Z,27.70
2023-10-09T05:49:51.157Z,26.50
2023-10-09T05:50:51.134Z,30.30
2023-10-09T05:51:52.118Z,33.00
2023-10-09T05:52:51.117Z,27.50
2023-10-09T05:53:51.121Z,29.80
2023-10-09T05:54:51.095Z,22.50
2023-10-09T05:55:51.089Z,27.10
2023-10-09T05:56:51.068Z,25.60
2023-10-09T05:57:51.062Z,27.50
2023-10-09T05:58:51.065Z,29.80
2023-10-09T05:59:52.042Z,25.10
2023-10-09T06:00:51.071Z,25.50
2023-10-09T06:01:51.064Z,23.80
2023-10-09T06:03:01.225Z,23.10
2023-10-09T06:03:53.125Z,26.40
2023-10-09T06:04:51.109Z,28.40
2023-10-09T06:05:50.984Z,26.50
2023-10-09T06:06:50.980Z,23.90
2023-10-09T06:07:51.011Z,26.60
2023-10-09T06:08:50.947Z,23.40
2023-10-09T06:09:51.462Z,27.70
2023-10-09T06:10:50.937Z,24.50
2023-10-09T06:11:51.367Z,27.60
2023-10-09T06:12:54.036Z,28.30
2023-10-09T06:13:51.904Z,27.00
2023-10-09T06:14:50.920Z,27.80
2023-10-09T06:15:50.876Z,26.10
2023-10-09T06:16:51.906Z,22.30
2023-10-09T06:17:50.921Z,24.70
2023-10-09T06:18:50.869Z,27.40
2023-10-09T06:19:50.883Z,23.60
2023-10-09T06:20:50.842Z,22.80
2023-10-09T06:21:50.859Z,24.00
2023-10-09T06:22:50.808Z,25.40
2023-10-09T06:23:50.798Z,25.80
2023-10-09T06:24:50.824Z,25.80
2023-10-09T06:25:50.812Z,28.10
2023-10-09T06:26:50.790Z,23.20
2023-10-09T06:27:50.758Z,27.90
2023-10-09T06:28:51.754Z,25.80
2023-10-09T06:29:50.781Z,23.80
2023-10-09T06:30:50.814Z,22.20
2023-10-09T06:31:50.782Z,28.30
2023-10-09T06:32:50.767Z,22.10
2023-10-09T06:33:50.715Z,23.40
2023-10-09T06:34:50.694Z,24.90
2023-10-09T06:35:50.697Z,23.00
2023-10-09T06:36:50.677Z,25.40
2023-10-09T06:38:03.325Z,25.40
2023-10-09T06:38:50.653Z,23.20
2023-10-09T06:39:50.652Z,23.90
2023-10-09T06:40:50.650Z,21.60
2023-10-09T06:41:50.649Z,22.40
2023-10-09T06:42:50.612Z,24.70
2023-10-09T06:43:50.596Z,24.60
2023-10-09T06:44:50.605Z,27.60
2023-10-09T06:45:50.652Z,20.70
2023-10-09T06:46:50.569Z,23.60
2023-10-09T06:47:50.632Z,24.10
2023-10-09T06:48:50.582Z,25.80
2023-10-09T06:49:50.565Z,29.10
2023-10-09T06:50:50.535Z,23.30
2023-10-09T06:51:50.520Z,22.40
2023-10-09T06:52:50.511Z,24.70
2023-10-09T06:53:50.540Z,20.90
2023-10-09T06:54:50.545Z,19.30
2023-10-09T06:55:50.479Z,23.20
2023-10-09T06:56:50.470Z,19.40
2023-10-09T06:57:50.544Z,27.30
2023-10-09T06:58:50.479Z,23.80
2023-10-09T06:59:50.458Z,23.70
2023-10-09T07:00:50.434Z,22.80
2023-10-09T07:01:50.442Z,20.60
2023-10-09T07:02:50.450Z,20.90
2023-10-09T07:03:50.537Z,26.30
2023-10-09T07:04:50.441Z,23.90
2023-10-09T07:05:50.439Z,18.80
2023-10-09T07:06:50.385Z,22.10
2023-10-09T07:07:50.438Z,24.10
2023-10-09T07:08:50.384Z,21.00
2023-10-09T07:09:50.366Z,21.40
2023-10-09T07:10:50.336Z,23.90
2023-10-09T07:11:50.349Z,21.70
2023-10-09T07:12:50.361Z,21.80
2023-10-09T07:13:50.314Z,20.60
2023-10-09T07:14:50.294Z,25.30
2023-10-09T07:15:50.415Z,25.40
2023-10-09T07:16:50.303Z,21.60
2023-10-09T07:17:50.343Z,24.10
2023-10-09T07:18:50.304Z,20.80
2023-10-09T07:19:50.243Z,25.90
2023-10-09T07:20:50.263Z,24.30
2023-10-09T07:21:50.256Z,22.70
2023-10-09T07:22:50.241Z,26.40
2023-10-09T07:23:50.217Z,21.80
2023-10-09T07:24:50.225Z,20.90
2023-10-09T07:25:50.295Z,26.50
2023-10-09T07:26:50.200Z,24.30
2023-10-09T07:27:51.056Z,21.70
2023-10-09T07:28:50.172Z,23.70
2023-10-09T07:29:50.186Z,23.40
2023-10-09T07:30:50.170Z,25.70
2023-10-09T07:31:50.174Z,25.80
2023-10-09T07:32:50.145Z,22.10
2023-10-09T07:33:50.140Z,22.10
2023-10-09T07:34:50.096Z,23.10
2023-10-09T07:35:50.107Z,20.00
2023-10-09T07:36:50.189Z,19.30
2023-10-09T07:37:50.071Z,22.70
2023-10-09T07:38:50.068Z,20.60
2023-10-09T07:39:50.059Z,24.30
2023-10-09T07:40:50.063Z,25.50
2023-10-09T07:41:50.075Z,21.10
2023-10-09T07:42:50.074Z,21.00
2023-10-09T07:43:50.017Z,24.30
2023-10-09T07:44:50.009Z,24.10
2023-10-09T07:45:50.104Z,20.50
2023-10-09T07:46:49.975Z,18.90
2023-10-09T07:47:50.004Z,21.70
2023-10-09T07:48:50.126Z,20.50
2023-10-09T07:49:49.966Z,23.90
2023-10-09T07:50:50.418Z,21.60
2023-10-09T07:51:49.952Z,21.70
2023-10-09T07:52:49.920Z,21.50
2023-10-09T07:53:49.916Z,19.40
2023-10-09T07:54:49.951Z,20.00
2023-10-09T07:55:49.912Z,24.30
2023-10-09T07:56:49.880Z,20.70
2023-10-09T07:57:49.875Z,20.30
2023-10-09T07:58:49.893Z,21.90
2023-10-09T07:59:49.862Z,26.10
2023-10-09T08:00:49.835Z,21.30
2023-10-09T08:01:49.834Z,18.10
2023-10-09T08:02:49.861Z,21.20
2023-10-09T08:03:50.673Z,21.30
2023-10-09T08:04:51.031Z,19.70
2023-10-09T08:05:49.799Z,19.00
2023-10-09T08:07:05.620Z,27.30
2023-10-09T08:08:04.967Z,19.00
2023-10-09T08:08:50.895Z,21.60
2023-10-09T08:09:49.780Z,19.40
2023-10-09T08:10:49.743Z,20.30
2023-10-09T08:11:49.732Z,21.00
2023-10-09T08:12:49.791Z,19.10
2023-10-09T08:13:49.761Z,18.30
2023-10-09T08:14:49.943Z,18.30
2023-10-09T08:15:50.026Z,22.00
2023-10-09T08:16:49.725Z,22.40
2023-10-09T08:17:49.773Z,22.90
2023-10-09T08:18:49.693Z,20.00
2023-10-09T08:19:49.651Z,22.10
2023-10-09T08:20:49.657Z,19.80
2023-10-09T08:21:49.702Z,17.90
2023-10-09T08:22:49.719Z,21.10
2023-10-09T08:23:49.691Z,21.00
2023-10-09T08:24:49.651Z,18.90
2023-10-09T08:25:49.601Z,20.40
2023-10-09T08:26:49.657Z,23.00
2023-10-09T08:27:49.620Z,22.20
2023-10-09T08:28:49.573Z,21.00
2023-10-09T08:29:49.562Z,21.70
2023-10-09T08:30:49.584Z,19.70
2023-10-09T08:31:49.633Z,17.60
2023-10-09T08:35:50.726Z,18.70
2023-10-09T08:36:49.622Z,20.20
2023-10-09T08:37:49.500Z,17.60
2023-10-09T08:38:49.466Z,19.20
2023-10-09T08:39:49.466Z,22.40
2023-10-09T08:40:49.522Z,21.60
2023-10-09T08:41:49.478Z,18.90
2023-10-09T08:42:49.428Z,18.80
2023-10-09T08:43:49.472Z,20.30
2023-10-09T08:44:49.409Z,20.30
2023-10-09T08:45:49.449Z,17.40
2023-10-09T08:46:49.426Z,18.80
2023-10-09T08:47:49.383Z,17.70
2023-10-09T08:48:49.365Z,21.50
2023-10-09T08:49:49.411Z,16.30
2023-10-09T08:50:49.359Z,18.10
2023-10-09T08:51:49.337Z,19.20
2023-10-09T08:52:49.415Z,20.40
2023-10-09T08:53:49.318Z,19.10
2023-10-09T08:54:49.324Z,22.00
2023-10-09T08:55:49.332Z,19.40
2023-10-09T08:56:49.290Z,22.00
2023-10-09T08:57:49.321Z,23.00
2023-10-09T08:58:49.281Z,20.80
2023-10-09T08:59:49.271Z,20.40
2023-10-09T09:00:49.308Z,20.10
2023-10-09T09:01:49.257Z,16.90
2023-10-09T09:02:49.233Z,22.60
2023-10-09T09:03:49.211Z,19.50
2023-10-09T09:04:49.303Z,18.60
2023-10-09T09:05:49.262Z,19.10
2023-10-09T09:06:49.185Z,19.60
2023-10-09T09:07:49.293Z,18.20
2023-10-09T09:08:49.184Z,18.40
2023-10-09T09:09:49.170Z,16.80
2023-10-09T09:10:49.187Z,18.60
2023-10-09T09:11:49.163Z,18.80
2023-10-09T09:12:49.128Z,14.50
2023-10-09T09:13:49.161Z,20.70
2023-10-09T09:14:49.111Z,15.70
2023-10-09T09:15:49.149Z,19.00
2023-10-09T09:16:49.219Z,19.10
2023-10-09T09:17:49.155Z,22.00
2023-10-09T09:18:49.095Z,15.90
2023-10-09T09:19:49.069Z,17.10
2023-10-09T09:20:49.054Z,18.70
2023-10-09T09:21:49.030Z,17.10
2023-10-09T09:22:49.101Z,19.30
2023-10-09T09:23:49.039Z,21.50
2023-10-09T09:24:49.020Z,20.50
2023-10-09T09:25:49.149Z,18.60
2023-10-09T09:26:49.004Z,17.10
2023-10-09T09:27:49.001Z,18.50
2023-10-09T09:28:49.024Z,16.10
2023-10-09T09:29:48.966Z,16.90
2023-10-09T09:30:48.969Z,19.40
2023-10-09T09:31:49.072Z,18.50
2023-10-09T09:32:49.000Z,15.90
2023-10-09T09:33:48.917Z,19.30
2023-10-09T09:34:49.413Z,19.10
2023-10-09T09:35:49.902Z,17.10
2023-10-09T09:36:48.900Z,15.70
2023-10-09T09:37:48.910Z,18.90
2023-10-09T09:38:49.346Z,15.50
2023-10-09T09:39:55.373Z,20.20
2023-10-09T09:40:50.889Z,16.10
2023-10-09T09:41:48.858Z,18.10
2023-10-09T09:42:48.827Z,22.30
2023-10-09T09:43:48.868Z,16.30
2023-10-09T09:44:48.813Z,18.00
2023-10-09T09:45:48.799Z,18.30
2023-10-09T09:46:48.851Z,20.80
2023-10-09T09:47:48.879Z,17.20
2023-10-09T09:48:48.804Z,25.30
2023-10-09T09:49:48.807Z,18.00
2023-10-09T09:50:48.822Z,19.20
2023-10-09T09:51:48.760Z,16.90
2023-10-09T09:52:48.761Z,18.90
2023-10-09T09:53:48.720Z,18.20
2023-10-09T09:54:48.706Z,17.50
2023-10-09T09:55:48.790Z,20.10
2023-10-09T09:56:48.692Z,17.80
2023-10-09T09:57:48.682Z,18.50
2023-10-09T09:58:48.762Z,18.90
2023-10-09T09:59:49.075Z,17.90
2023-10-09T10:00:49.692Z,17.90
2023-10-09T10:01:48.689Z,16.10
2023-10-09T10:02:48.699Z,22.60
2023-10-09T10:03:48.632Z,19.60
2023-10-09T10:04:48.689Z,20.90
2023-10-09T10:05:48.626Z,22.30
2023-10-09T10:06:48.597Z,17.90
2023-10-09T10:07:48.598Z,20.60
2023-10-09T10:08:48.576Z,19.60
2023-10-09T10:09:48.576Z,20.20
2023-10-09T10:10:48.578Z,17.40
2023-10-09T10:11:48.547Z,19.40
2023-10-09T10:12:48.527Z,21.00
2023-10-09T10:13:48.572Z,18.10
2023-10-09T10:14:48.536Z,17.00
2023-10-09T10:15:48.501Z,20.10
2023-10-09T10:16:48.531Z,17.00
2023-10-09T10:17:49.529Z,20.20
2023-10-09T10:18:48.505Z,18.70
2023-10-09T10:19:48.514Z,18.50
2023-10-09T10:20:48.475Z,19.70
2023-10-09T10:21:48.454Z,16.60
2023-10-09T10:22:48.494Z,16.80
2023-10-09T10:23:48.462Z,18.30
2023-10-09T10:24:48.421Z,17.10
2023-10-09T10:25:48.408Z,17.80
2023-10-09T10:26:48.391Z,25.10
2023-10-09T10:27:48.384Z,17.50
2023-10-09T10:28:48.431Z,16.50
2023-10-09T10:29:48.392Z,23.70
2023-10-09T10:30:48.447Z,18.70
2023-10-09T10:31:48.418Z,20.40
2023-10-09T10:32:48.412Z,23.00
2023-10-09T10:33:48.346Z,16.70
2023-10-09T10:34:48.356Z,20.00
2023-10-09T10:35:48.307Z,19.10
2023-10-09T10:36:48.288Z,19.50
2023-10-09T10:37:48.364Z,19.80
2023-10-09T10:38:48.308Z,17.20
2023-10-09T10:39:48.263Z,20.00
2023-10-09T10:40:48.278Z,19.50
2023-10-09T10:41:48.240Z,18.90
2023-10-09T10:42:48.245Z,15.50
2023-10-09T10:43:48.274Z,19.50
2023-10-09T10:44:48.206Z,16.00
2023-10-09T10:45:48.204Z,19.30
2023-10-09T10:46:48.288Z,15.50
2023-10-09T10:47:48.233Z,19.20
2023-10-09T10:48:48.249Z,16.20
2023-10-09T10:49:48.188Z,16.90
2023-10-09T10:50:48.157Z,17.70
2023-10-09T10:51:48.271Z,22.90
2023-10-09T10:52:48.204Z,21.00
2023-10-09T10:53:48.267Z,15.50
2023-10-09T10:54:48.123Z,17.20
2023-10-09T10:55:48.187Z,19.00
2023-10-09T10:56:48.123Z,19.50
2023-10-09T10:57:48.122Z,19.30
2023-10-09T10:58:48.084Z,16.90
2023-10-09T10:59:48.076Z,16.70
2023-10-09T11:00:48.166Z,22.00
2023-10-09T11:01:48.138Z,20.30
2023-10-09T11:02:48.197Z,16.10
2023-10-09T11:03:48.097Z,18.60
2023-10-09T11:04:48.241Z,19.90
2023-10-09T11:05:48.053Z,21.10
2023-10-09T11:06:47.999Z,16.60
2023-10-09T11:07:48.020Z,16.10
2023-10-09T11:08:47.981Z,19.30
2023-10-09T11:09:53.186Z,18.20
2023-10-09T11:10:50.037Z,18.00
2023-10-09T11:11:47.960Z,14.50
2023-10-09T11:12:47.933Z,17.80
2023-10-09T11:13:47.943Z,20.40
2023-10-09T11:14:47.934Z,20.60
2023-10-09T11:15:47.973Z,16.90
2023-10-09T11:16:47.897Z,17.90
2023-10-09T11:17:47.928Z,19.40
2023-10-09T11:18:47.941Z,19.60
2023-10-09T11:19:47.980Z,18.50
2023-10-09T11:20:47.857Z,17.80
2023-10-09T11:21:47.841Z,19.40
2023-10-09T11:22:47.854Z,16.80
2023-10-09T11:23:47.846Z,18.10
2023-10-09T11:24:47.837Z,18.70
2023-10-09T11:25:48.814Z,17.10
2023-10-09T11:26:47.887Z,20.30
2023-10-09T11:27:47.801Z,22.00
2023-10-09T11:28:47.985Z,18.30
2023-10-09T11:29:47.774Z,17.60
2023-10-09T11:30:47.827Z,18.90
2023-10-09T11:31:47.762Z,17.70
2023-10-09T11:32:47.775Z,18.20
2023-10-09T11:33:47.787Z,19.10
2023-10-09T11:34:47.772Z,18.00
2023-10-09T11:35:47.687Z,19.20
2023-10-09T11:36:48.696Z,17.50
2023-10-09T11:37:47.724Z,17.50
2023-10-09T11:38:47.691Z,16.40
2023-10-09T11:39:47.678Z,15.00
2023-10-09T11:40:47.709Z,17.40
2023-10-09T11:41:47.645Z,21.90
2023-10-09T11:42:47.660Z,15.80
2023-10-09T11:43:48.726Z,17.40
2023-10-09T11:44:47.615Z,14.40
2023-10-09T11:45:48.995Z,13.50
2023-10-09T11:46:47.677Z,12.90
2023-10-09T11:47:47.643Z,14.60
2023-10-09T11:48:47.579Z,17.20
2023-10-09T11:49:48.582Z,14.40
2023-10-09T11:50:47.565Z,16.80
2023-10-09T11:51:47.573Z,19.10
2023-10-09T11:52:47.594Z,14.80
2023-10-09T11:53:47.564Z,15.60
2023-10-09T11:54:47.537Z,16.20
2023-10-09T11:55:47.606Z,17.00
2023-10-09T11:56:47.522Z,16.10
2023-10-09T11:57:47.505Z,16.40
2023-10-09T11:58:47.517Z,19.10
2023-10-09T11:59:47.507Z,14.40
2023-10-09T12:00:47.543Z,13.40
2023-10-09T12:01:47.538Z,17.30
2023-10-09T12:02:47.545Z,14.50
2023-10-09T12:03:47.498Z,16.50
2023-10-09T12:04:47.528Z,15.40
2023-10-09T12:05:47.459Z,17.50
2023-10-09T12:06:47.437Z,19.30
2023-10-09T12:07:47.430Z,14.80
2023-10-09T12:08:47.408Z,16.80
2023-10-09T12:09:47.376Z,17.10
2023-10-09T12:10:47.448Z,19.20
2023-10-09T12:12:01.264Z,17.20
2023-10-09T12:12:49.341Z,19.40
2023-10-09T12:13:47.381Z,17.00
2023-10-09T12:14:47.341Z,16.70
2023-10-09T12:15:47.325Z,14.50
2023-10-09T12:16:47.398Z,14.50
2023-10-09T12:17:47.376Z,17.10
2023-10-09T12:18:47.291Z,19.30
2023-10-09T12:19:47.307Z,14.40
2023-10-09T12:20:48.290Z,18.00
2023-10-09T12:21:47.269Z,17.00
2023-10-09T12:22:47.302Z,20.70
2023-10-09T12:23:47.244Z,21.90
2023-10-09T12:24:47.260Z,15.30
2023-10-09T12:25:47.280Z,17.80
2023-10-09T12:26:47.220Z,18.00
2023-10-09T12:27:47.195Z,17.00
2023-10-09T12:28:47.892Z,17.40
2023-10-09T12:29:50.004Z,14.70
2023-10-09T12:30:48.169Z,16.80
2023-10-09T12:31:47.200Z,16.20
2023-10-09T12:32:47.219Z,17.60
2023-10-09T12:33:47.174Z,14.60
2023-10-09T12:34:47.151Z,17.00
2023-10-09T12:35:47.121Z,16.90
2023-10-09T12:36:47.095Z,18.10
2023-10-09T12:37:47.125Z,20.10
2023-10-09T12:38:47.088Z,17.40
2023-10-09T12:39:47.073Z,19.90
2023-10-09T12:40:47.107Z,15.70
2023-10-09T12:41:47.044Z,14.60
2023-10-09T12:42:47.042Z,19.70
2023-10-09T12:43:47.102Z,16.50
2023-10-09T12:44:47.041Z,16.90
2023-10-09T12:45:47.018Z,14.70
2023-10-09T12:46:47.124Z,15.50
2023-10-09T12:47:47.149Z,16.00
2023-10-09T12:48:47.005Z,16.90
2023-10-09T12:49:47.024Z,16.40
2023-10-09T12:50:46.963Z,19.80
2023-10-09T12:51:46.954Z,15.90
2023-10-09T12:52:47.014Z,19.60
2023-10-09T12:53:47.003Z,15.90
2023-10-09T12:54:46.941Z,14.30
2023-10-09T12:55:47.007Z,18.40
2023-10-09T12:56:46.902Z,16.70
2023-10-09T12:57:46.910Z,17.50